Jasper, New York
Current Conditions -  °F | °C
As of 12:56 AM on Wednesday 26 Nov 2014 (Local Time) from KELZ Reporting Station
Overcast Overcast  
Wind Chill: 23°   Ceiling: 1900
Heat Index: 31°   Visibility: 10mi
Dew Point: 23°   Wind: 8mph
Humidity: 72%   Direction: 330°NNW
Pressure: 30.13"   Gusts: NA
Location:  42.12°N, 77.5°W
Report Text: KELZ 260556Z AUTO 33007KT 10SM OVC019 M01/M05 A3013 RMK AO2 SLP219 T10061050 10028 21006 50003
Loading
Personal Weather Stations






























Interactive Weather Map New forecast layout! Learn more

10-Day Weather Forecast

Advertisements
Track Severe Weather on mobile